createdAt,value
2022-08-07T00:00:26.178Z,2.37
2022-08-07T00:02:53.967Z,2.33
2022-08-07T00:05:23.641Z,2.50
2022-08-07T00:07:59.885Z,2.37
2022-08-07T00:10:30.818Z,2.50
2022-08-07T00:13:17.489Z,2.70
2022-08-07T00:15:52.590Z,2.20
2022-08-07T00:18:27.329Z,2.50
2022-08-07T00:21:03.504Z,2.40
2022-08-07T00:23:39.582Z,2.70
2022-08-07T00:26:13.235Z,2.40
2022-08-07T00:28:58.972Z,2.10
2022-08-07T00:31:37.499Z,3.00
2022-08-07T00:34:09.389Z,2.90
2022-08-07T00:36:42.786Z,2.77
2022-08-07T00:39:16.421Z,2.50
2022-08-07T00:42:01.962Z,2.80
2022-08-07T00:44:34.833Z,1.80
2022-08-07T00:47:06.568Z,2.60
2022-08-07T00:50:19.249Z,2.40
2022-08-07T00:52:33.354Z,2.53
2022-08-07T00:55:04.717Z,2.37
2022-08-07T00:57:38.159Z,2.20
2022-08-07T01:00:23.114Z,2.13
2022-08-07T01:02:51.284Z,2.33
2022-08-07T01:05:20.669Z,2.33
2022-08-07T01:07:51.895Z,2.00
2022-08-07T01:10:19.925Z,2.40
2022-08-07T01:12:53.495Z,2.47
2022-08-07T01:15:23.199Z,3.00
2022-08-07T01:18:10.452Z,3.20
2022-08-07T01:20:57.550Z,2.50
2022-08-07T01:23:38.406Z,3.20
2022-08-07T01:26:16.696Z,3.17
2022-08-07T01:28:51.763Z,3.57
2022-08-07T01:31:21.199Z,3.10
2022-08-07T01:33:56.067Z,3.07
2022-08-07T01:36:33.473Z,3.00
2022-08-07T01:39:10.125Z,3.40
2022-08-07T01:41:40.926Z,3.80
2022-08-07T01:44:27.275Z,3.73
2022-08-07T01:46:54.728Z,4.03
2022-08-07T01:49:22.331Z,2.87
2022-08-07T01:52:03.653Z,3.00
2022-08-07T01:54:38.422Z,3.13
2022-08-07T01:57:30.878Z,3.27
2022-08-07T02:00:13.902Z,3.57
2022-08-07T02:03:21.053Z,3.00
2022-08-07T02:05:53.599Z,2.93
2022-08-07T02:08:29.348Z,3.43
2022-08-07T02:11:00.034Z,3.43
2022-08-07T02:13:57.981Z,3.70
2022-08-07T02:16:32.916Z,3.33
2022-08-07T02:19:05.494Z,3.10
2022-08-07T02:21:58.655Z,3.03
2022-08-07T02:24:29.491Z,2.70
2022-08-07T02:27:01.346Z,3.00
2022-08-07T02:29:32.403Z,3.07
2022-08-07T02:32:04.152Z,2.63
2022-08-07T02:34:33.486Z,2.83
2022-08-07T02:37:08.058Z,2.70
2022-08-07T02:40:12.099Z,2.80
2022-08-07T02:42:33.836Z,3.50
2022-08-07T02:45:07.270Z,2.83
2022-08-07T02:47:52.475Z,3.53
2022-08-07T02:50:19.801Z,3.00
2022-08-07T02:53:07.029Z,3.07
2022-08-07T02:56:03.663Z,3.60
2022-08-07T02:58:34.691Z,3.30
2022-08-07T03:01:04.021Z,3.53
2022-08-07T03:03:50.062Z,3.03
2022-08-07T03:06:25.546Z,2.70
2022-08-07T03:08:54.558Z,3.00
2022-08-07T03:11:25.350Z,2.40
2022-08-07T03:13:56.462Z,3.10
2022-08-07T03:16:31.065Z,3.40
2022-08-07T03:19:00.714Z,3.27
2022-08-07T03:21:29.108Z,2.77
2022-08-07T03:24:20.399Z,3.00
2022-08-07T03:26:58.907Z,3.10
2022-08-07T03:29:51.876Z,3.60
2022-08-07T03:32:36.828Z,2.70
2022-08-07T03:35:18.524Z,2.70
2022-08-07T03:38:04.831Z,3.10
2022-08-07T03:40:36.486Z,3.30
2022-08-07T03:43:13.679Z,2.60
2022-08-07T03:45:43.440Z,3.00
2022-08-07T03:48:15.178Z,3.00
2022-08-07T03:50:56.234Z,3.50
2022-08-07T03:54:02.003Z,2.90
2022-08-07T03:56:33.188Z,2.80
2022-08-07T03:59:09.151Z,3.27
2022-08-07T04:01:45.213Z,3.23
2022-08-07T04:04:17.766Z,3.50
2022-08-07T04:06:51.546Z,3.33
2022-08-07T04:09:22.998Z,3.23
2022-08-07T04:12:25.108Z,3.30
2022-08-07T04:14:43.755Z,3.50
2022-08-07T04:17:20.307Z,4.00
2022-08-07T04:19:51.536Z,3.80
2022-08-07T04:22:19.895Z,3.93
2022-08-07T04:24:50.985Z,3.30
2022-08-07T04:27:25.376Z,3.33
2022-08-07T04:30:02.098Z,3.77
2022-08-07T04:32:34.537Z,3.70
2022-08-07T04:35:06.320Z,3.30
2022-08-07T04:38:00.967Z,3.20
2022-08-07T04:40:29.748Z,3.50
2022-08-07T04:43:01.608Z,3.10
2022-08-07T04:46:02.731Z,3.13
2022-08-07T04:49:47.446Z,2.90
2022-08-07T04:53:03.156Z,3.65
2022-08-07T04:58:13.248Z,3.30
2022-08-07T04:59:16.984Z,2.90
2022-08-07T05:01:50.587Z,3.25
2022-08-07T05:04:57.996Z,3.00
2022-08-07T05:07:48.089Z,3.55
2022-08-07T05:10:24.606Z,3.15
2022-08-07T05:14:44.924Z,3.20
2022-08-07T05:15:58.414Z,3.10
2022-08-07T05:18:40.117Z,3.97
2022-08-07T05:21:14.609Z,3.05
2022-08-07T05:23:56.668Z,3.10
2022-08-07T05:26:27.390Z,3.00
2022-08-07T05:28:59.169Z,2.72
2022-08-07T05:31:41.474Z,2.72
2022-08-07T05:34:20.411Z,2.60
2022-08-07T05:36:55.882Z,2.53
2022-08-07T05:40:16.608Z,3.25
2022-08-07T05:42:14.631Z,2.83
2022-08-07T05:45:14.370Z,2.83
2022-08-07T05:48:01.090Z,3.00
2022-08-07T05:50:34.581Z,2.90
2022-08-07T05:53:04.140Z,2.70
2022-08-07T05:56:02.975Z,2.55
2022-08-07T05:58:36.357Z,2.33
2022-08-07T06:01:11.140Z,2.67
2022-08-07T06:03:57.233Z,2.55
2022-08-07T06:06:29.832Z,2.55
2022-08-07T06:09:01.243Z,2.50
2022-08-07T06:11:34.538Z,2.63
2022-08-07T06:14:12.788Z,2.95
2022-08-07T06:16:50.700Z,2.45
2022-08-07T06:19:57.880Z,2.53
2022-08-07T06:22:20.372Z,2.20
2022-08-07T06:24:58.159Z,2.30
2022-08-07T06:27:59.906Z,2.30
2022-08-07T06:30:31.820Z,2.08
2022-08-07T06:33:04.077Z,1.90
2022-08-07T06:35:39.309Z,2.00
2022-08-07T06:38:20.426Z,1.75
2022-08-07T06:40:53.012Z,2.25
2022-08-07T06:43:24.557Z,2.00
2022-08-07T06:45:51.730Z,1.58
2022-08-07T06:48:24.667Z,2.42
2022-08-07T06:50:54.791Z,2.10
2022-08-07T06:55:28.451Z,2.05
2022-08-07T06:56:14.897Z,2.17
2022-08-07T07:00:14.350Z,1.63
2022-08-07T07:01:43.633Z,1.85
2022-08-07T07:04:28.620Z,1.42
2022-08-07T07:07:18.801Z,1.50
2022-08-07T07:09:49.797Z,1.70
2022-08-07T07:12:53.512Z,1.75
2022-08-07T07:15:32.466Z,1.50
2022-08-07T07:18:15.341Z,1.63
2022-08-07T07:21:13.637Z,1.90
2022-08-07T07:24:09.211Z,1.70
2022-08-07T07:26:40.932Z,1.50
2022-08-07T07:29:56.806Z,1.70
2022-08-07T07:32:14.743Z,1.52
2022-08-07T07:34:48.568Z,1.60
2022-08-07T07:37:45.216Z,1.95
2022-08-07T07:40:14.812Z,1.67
2022-08-07T07:42:54.023Z,1.73
2022-08-07T07:46:39.753Z,1.77
2022-08-07T07:48:35.025Z,1.80
2022-08-07T07:51:07.874Z,2.17
2022-08-07T07:53:51.774Z,2.40
2022-08-07T07:56:30.669Z,1.90
2022-08-07T07:59:01.962Z,1.88
2022-08-07T08:02:02.744Z,1.77
2022-08-07T08:04:28.575Z,2.10
2022-08-07T08:07:02.699Z,2.00
2022-08-07T08:09:52.319Z,2.45
2022-08-07T08:12:52.045Z,2.00
2022-08-07T08:15:13.402Z,1.95
2022-08-07T08:17:58.037Z,1.90
2022-08-07T08:20:32.083Z,2.65
2022-08-07T08:23:20.749Z,2.50
2022-08-07T08:26:12.610Z,2.10
2022-08-07T08:28:46.077Z,2.20
2022-08-07T08:31:29.940Z,2.50
2022-08-07T08:34:12.453Z,2.40
2022-08-07T08:36:49.326Z,2.35
2022-08-07T08:39:38.909Z,2.40
2022-08-07T08:42:36.427Z,2.55
2022-08-07T08:45:19.635Z,2.92
2022-08-07T08:48:22.277Z,2.70
2022-08-07T08:51:14.543Z,2.40
2022-08-07T08:54:29.541Z,2.58
2022-08-07T08:57:04.259Z,2.60
2022-08-07T08:59:53.729Z,2.58
2022-08-07T09:02:40.695Z,2.50
2022-08-07T09:05:51.783Z,2.70
2022-08-07T09:08:41.873Z,2.25
2022-08-07T09:11:50.592Z,2.75
2022-08-07T09:14:58.853Z,2.38
2022-08-07T09:17:59.033Z,2.65
2022-08-07T09:20:58.324Z,2.25
2022-08-07T09:24:31.769Z,2.30
2022-08-07T09:27:09.169Z,2.80
2022-08-07T09:30:05.592Z,2.50
2022-08-07T09:32:50.132Z,2.40
2022-08-07T09:36:04.629Z,2.28
2022-08-07T09:38:37.497Z,2.38
2022-08-07T09:41:43.551Z,2.10
2022-08-07T09:47:20.399Z,2.10
2022-08-07T09:48:04.017Z,2.40
2022-08-07T09:51:02.885Z,2.30
2022-08-07T09:53:48.921Z,2.10
2022-08-07T09:56:58.524Z,2.20
2022-08-07T10:00:07.795Z,2.28
2022-08-07T10:04:05.602Z,2.30
2022-08-07T10:06:41.617Z,2.22
2022-08-07T10:10:01.132Z,2.03
2022-08-07T10:13:29.835Z,3.00
2022-08-07T10:16:41.806Z,1.80
2022-08-07T10:19:39.254Z,1.98
2022-08-07T10:22:37.481Z,1.90
2022-08-07T10:25:44.914Z,1.90
2022-08-07T10:28:28.126Z,2.20
2022-08-07T10:31:28.486Z,2.22
2022-08-07T10:34:15.750Z,1.88
2022-08-07T10:37:15.364Z,1.77
2022-08-07T10:40:14.589Z,1.80
2022-08-07T10:43:13.330Z,1.92
2022-08-07T10:45:58.284Z,1.77
2022-08-07T10:48:35.008Z,1.77
2022-08-07T10:51:39.643Z,2.05
2022-08-07T10:54:38.014Z,1.63
2022-08-07T10:57:35.281Z,2.00
2022-08-07T11:00:36.998Z,1.70
2022-08-07T11:03:21.565Z,1.80
2022-08-07T11:06:18.541Z,1.90
2022-08-07T11:09:02.981Z,1.67
2022-08-07T11:11:44.577Z,1.90
2022-08-07T11:15:00.445Z,2.25
2022-08-07T11:17:46.321Z,1.77
2022-08-07T11:20:24.709Z,2.15
2022-08-07T11:23:20.831Z,1.80
2022-08-07T11:26:38.509Z,2.10
2022-08-07T11:29:42.007Z,1.80
2022-08-07T11:32:25.814Z,1.80
2022-08-07T11:35:16.640Z,1.70
2022-08-07T11:38:31.757Z,1.75
2022-08-07T11:41:09.391Z,2.25
2022-08-07T11:44:12.237Z,2.17
2022-08-07T11:47:26.078Z,2.05
2022-08-07T11:50:35.363Z,2.72
2022-08-07T11:53:43.342Z,2.40
2022-08-07T11:57:12.807Z,2.50
2022-08-07T12:00:18.795Z,2.00
2022-08-07T12:03:44.423Z,2.60
2022-08-07T12:06:37.904Z,2.33
2022-08-07T12:09:49.335Z,2.20
2022-08-07T12:12:50.329Z,2.20
2022-08-07T12:15:46.496Z,2.20
2022-08-07T12:18:36.739Z,2.40
2022-08-07T12:22:35.896Z,2.38
2022-08-07T12:26:00.272Z,2.20
2022-08-07T12:28:10.071Z,2.42
2022-08-07T12:30:46.764Z,1.90
2022-08-07T12:33:28.162Z,2.47
2022-08-07T12:36:02.511Z,1.95
2022-08-07T12:38:43.026Z,1.90
2022-08-07T12:41:16.517Z,2.10
2022-08-07T12:44:03.180Z,2.35
2022-08-07T12:47:21.841Z,2.15
2022-08-07T12:50:39.428Z,2.15
2022-08-07T12:54:03.188Z,2.22
2022-08-07T12:56:50.984Z,2.00
2022-08-07T12:59:33.102Z,2.25
2022-08-07T13:02:42.242Z,2.40
2022-08-07T13:06:03.333Z,2.08
2022-08-07T13:08:41.325Z,2.22
2022-08-07T13:12:00.930Z,2.15
2022-08-07T13:14:55.411Z,2.55
2022-08-07T13:17:46.626Z,2.25
2022-08-07T13:20:27.499Z,2.30
2022-08-07T13:23:59.961Z,2.35
2022-08-07T13:26:15.995Z,3.10
2022-08-07T13:29:15.127Z,2.42
2022-08-07T13:32:32.668Z,2.35
2022-08-07T13:36:01.354Z,2.20
2022-08-07T13:38:45.348Z,2.60
2022-08-07T13:41:35.664Z,2.55
2022-08-07T13:44:13.150Z,2.97
2022-08-07T13:46:49.643Z,2.15
2022-08-07T13:50:34.004Z,2.45
2022-08-07T13:52:26.539Z,2.40
2022-08-07T13:55:06.472Z,2.20
2022-08-07T13:57:38.789Z,2.40
2022-08-07T14:00:50.393Z,2.33
2022-08-07T14:03:28.900Z,2.55
2022-08-07T14:05:58.752Z,2.63
2022-08-07T14:08:28.258Z,3.20
2022-08-07T14:11:01.978Z,2.20
2022-08-07T14:13:56.074Z,2.53
2022-08-07T14:16:38.567Z,2.67
2022-08-07T14:20:40.630Z,2.88
2022-08-07T14:22:18.681Z,3.22
2022-08-07T14:25:11.888Z,2.50
2022-08-07T14:28:10.688Z,2.42
2022-08-07T14:30:36.970Z,2.45
2022-08-07T14:33:09.076Z,2.40
2022-08-07T14:35:45.413Z,2.63
2022-08-07T14:38:31.304Z,2.25
2022-08-07T14:41:12.424Z,2.60
2022-08-07T14:43:57.911Z,3.13
2022-08-07T14:46:37.172Z,3.00
2022-08-07T14:49:57.338Z,2.70
2022-08-07T14:52:16.790Z,3.10
2022-08-07T14:54:45.914Z,2.80
2022-08-07T14:57:19.657Z,2.70
2022-08-07T15:00:03.270Z,3.33
2022-08-07T15:02:37.179Z,2.75
2022-08-07T15:05:20.626Z,3.10
2022-08-07T15:07:53.283Z,3.33
2022-08-07T15:10:26.332Z,2.58
2022-08-07T15:15:57.588Z,3.05
2022-08-07T15:18:52.703Z,3.40
2022-08-07T15:21:43.957Z,2.78
2022-08-07T15:25:12.747Z,2.60
2022-08-07T15:27:17.705Z,2.95
2022-08-07T15:30:06.467Z,2.92
2022-08-07T15:33:01.360Z,2.85
2022-08-07T15:35:40.648Z,2.40
2022-08-07T15:38:51.032Z,2.55
2022-08-07T15:42:42.329Z,2.97
2022-08-07T15:44:15.113Z,3.78
2022-08-07T15:46:51.908Z,4.20
2022-08-07T15:52:29.978Z,3.03
2022-08-07T15:55:03.948Z,3.42
2022-08-07T15:57:39.961Z,3.10
2022-08-07T16:00:31.967Z,2.90
2022-08-07T16:03:21.362Z,3.80
2022-08-07T16:06:03.193Z,7.13
2022-08-07T16:08:38.624Z,3.00
2022-08-07T16:11:43.145Z,3.75
2022-08-07T16:14:32.826Z,3.67
2022-08-07T16:18:01.947Z,3.72
2022-08-07T16:20:55.114Z,4.00
2022-08-07T16:24:34.245Z,3.50
2022-08-07T16:27:18.068Z,3.20
2022-08-07T16:30:31.620Z,3.47
2022-08-07T16:34:02.171Z,3.17
2022-08-07T16:37:02.481Z,3.05
2022-08-07T16:40:28.328Z,3.03
2022-08-07T16:44:02.321Z,2.78
2022-08-07T16:47:06.815Z,3.67
2022-08-07T16:50:20.804Z,3.53
2022-08-07T16:54:06.543Z,3.00
2022-08-07T16:57:01.743Z,4.10
2022-08-07T16:59:58.147Z,4.88
2022-08-07T17:02:51.300Z,4.55
2022-08-07T17:06:28.285Z,5.32
2022-08-07T17:09:09.915Z,5.15
2022-08-07T17:12:33.914Z,4.50
2022-08-07T17:15:43.889Z,3.97
2022-08-07T17:18:53.602Z,3.55
2022-08-07T17:21:51.308Z,3.10
2022-08-07T17:24:41.845Z,3.70
2022-08-07T17:27:35.892Z,3.13
2022-08-07T17:30:19.499Z,4.32
2022-08-07T17:34:10.393Z,3.60
2022-08-07T17:36:12.007Z,3.25
2022-08-07T17:39:01.788Z,3.80
2022-08-07T17:42:06.980Z,3.83
2022-08-07T17:44:50.635Z,4.00
2022-08-07T17:47:54.586Z,3.90
2022-08-07T17:51:22.996Z,3.22
2022-08-07T17:54:29.703Z,3.95
2022-08-07T17:57:21.821Z,3.40
2022-08-07T17:59:59.746Z,3.88
2022-08-07T18:02:56.759Z,3.78
2022-08-07T18:06:03.523Z,4.45
2022-08-07T18:09:01.397Z,3.20
2022-08-07T18:12:16.226Z,3.42
2022-08-07T18:14:51.061Z,4.00
2022-08-07T18:18:45.173Z,4.63
2022-08-07T18:21:10.963Z,4.60
2022-08-07T18:24:07.233Z,3.80
2022-08-07T18:26:57.013Z,3.30
2022-08-07T18:30:08.343Z,3.78
2022-08-07T18:32:56.114Z,3.65
2022-08-07T18:36:33.354Z,3.67
2022-08-07T18:40:05.226Z,4.00
2022-08-07T18:42:27.645Z,3.38
2022-08-07T18:45:43.597Z,3.65
2022-08-07T18:50:03.384Z,3.38
2022-08-07T18:52:35.317Z,3.33
2022-08-07T18:55:40.923Z,3.38
2022-08-07T18:58:41.533Z,3.70
2022-08-07T19:02:18.550Z,6.10
2022-08-07T19:04:59.421Z,3.95
2022-08-07T19:07:58.700Z,4.15
2022-08-07T19:10:51.360Z,3.95
2022-08-07T19:13:57.681Z,4.93
2022-08-07T19:17:05.556Z,3.95
2022-08-07T19:20:29.209Z,3.50
2022-08-07T19:23:18.964Z,3.72
2022-08-07T19:26:24.870Z,3.97
2022-08-07T19:30:54.833Z,3.85
2022-08-07T19:32:17.124Z,3.60
2022-08-07T19:34:55.190Z,3.80
2022-08-07T19:37:24.617Z,4.20
2022-08-07T19:40:14.633Z,3.88
2022-08-07T19:42:45.753Z,4.20
2022-08-07T19:46:07.433Z,3.97
2022-08-07T19:48:18.952Z,4.25
2022-08-07T19:50:53.398Z,3.25
2022-08-07T19:54:32.942Z,4.10
2022-08-07T19:58:01.300Z,3.92
2022-08-07T19:59:02.479Z,3.83
2022-08-07T20:01:52.314Z,4.15
2022-08-07T20:04:43.076Z,3.70
2022-08-07T20:07:23.911Z,4.28
2022-08-07T20:10:36.938Z,4.18
2022-08-07T20:12:58.093Z,4.15
2022-08-07T20:15:32.745Z,4.20
2022-08-07T20:18:05.859Z,4.13
2022-08-07T20:20:43.418Z,5.47
2022-08-07T20:23:32.949Z,4.82
2022-08-07T20:26:10.024Z,4.38
2022-08-07T20:28:41.362Z,3.80
2022-08-07T20:31:21.687Z,4.50
2022-08-07T20:33:57.521Z,4.20
2022-08-07T20:36:32.005Z,4.22
2022-08-07T20:39:00.545Z,4.07
2022-08-07T20:41:38.279Z,4.15
2022-08-07T20:44:12.333Z,4.15
2022-08-07T20:46:44.150Z,4.28
2022-08-07T20:50:00.566Z,4.22
2022-08-07T20:52:16.629Z,4.53
2022-08-07T20:54:54.159Z,4.93
2022-08-07T20:57:28.729Z,5.40
2022-08-07T21:00:09.245Z,4.65
2022-08-07T21:02:58.076Z,4.50
2022-08-07T21:05:55.699Z,4.53
2022-08-07T21:08:57.007Z,4.95
2022-08-07T21:11:46.210Z,4.65
2022-08-07T21:14:32.942Z,4.00
2022-08-07T21:18:03.625Z,4.75
2022-08-07T21:20:05.215Z,4.60
2022-08-07T21:22:51.279Z,4.95
2022-08-07T21:25:29.584Z,5.10
2022-08-07T21:28:47.575Z,5.47
2022-08-07T21:32:43.124Z,5.40
2022-08-07T21:34:46.295Z,5.55
2022-08-07T21:37:59.208Z,5.40
2022-08-07T21:40:49.500Z,5.30
2022-08-07T21:43:56.056Z,4.65
2022-08-07T21:47:07.431Z,5.25
2022-08-07T21:50:03.626Z,5.43
2022-08-07T21:53:09.390Z,5.97
2022-08-07T21:56:06.948Z,4.63
2022-08-07T21:59:16.970Z,4.50
2022-08-07T22:02:10.384Z,4.75
2022-08-07T22:04:54.000Z,4.73
2022-08-07T22:07:31.485Z,4.90
2022-08-07T22:10:07.142Z,4.57
2022-08-07T22:13:12.645Z,4.50
2022-08-07T22:16:42.807Z,4.57
2022-08-07T22:19:09.230Z,4.10
2022-08-07T22:22:04.495Z,4.30
2022-08-07T22:24:56.774Z,4.28
2022-08-07T22:28:06.427Z,4.70
2022-08-07T22:30:52.936Z,4.80
2022-08-07T22:33:57.055Z,4.27
2022-08-07T22:36:57.930Z,4.70
2022-08-07T22:39:52.975Z,5.10
2022-08-07T22:42:29.538Z,4.83
2022-08-07T22:45:03.608Z,4.97
2022-08-07T22:48:31.695Z,4.83
2022-08-07T22:51:41.334Z,4.23
2022-08-07T22:54:58.265Z,4.40
2022-08-07T22:58:10.334Z,4.87
2022-08-07T23:01:05.422Z,4.67
2022-08-07T23:04:01.848Z,3.83
2022-08-07T23:07:01.499Z,4.37
2022-08-07T23:10:03.699Z,4.87
2022-08-07T23:12:44.845Z,5.07
2022-08-07T23:15:21.848Z,4.33
2022-08-07T23:18:18.138Z,4.10
2022-08-07T23:21:30.483Z,4.40
2022-08-07T23:24:45.725Z,4.30
2022-08-07T23:27:33.598Z,3.70
2022-08-07T23:30:39.545Z,4.33
2022-08-07T23:34:36.887Z,4.13
2022-08-07T23:36:17.476Z,4.60
2022-08-07T23:39:09.766Z,4.07
2022-08-07T23:42:04.499Z,4.60
2022-08-07T23:45:02.278Z,4.40
2022-08-07T23:48:03.981Z,4.13
2022-08-07T23:50:54.434Z,4.40
2022-08-07T23:53:49.561Z,4.07
2022-08-07T23:57:04.408Z,4.00
